This is the latest recevied weather packets stored in our database for station/object DK4DAX-2. If no packets are shown the sender has not sent any weather packets the latest 10 day(s).
| Time | Temp. | Humidity | Pressure | Rain* | Wind** | Luminosity | Snow |
|---|---|---|---|---|---|---|---|
| 1787924704 | 28.89° C | 33% | 1006.6 hPa | 0 mm | - | - | - |
| 1787923803 | 31.67° C | 32% | 1006 hPa | 0 mm | - | - | - |
| 1787922903 | 31.67° C | 38% | 1006.5 hPa | 0 mm | - | - | - |
| 1787922004 | 28.89° C | 50% | 1006.4 hPa | 0 mm | - | - | - |
| 1787921103 | 23.33° C | 69% | 1006.6 hPa | 0 mm | - | - | - |
| 1787920203 | 25° C | 56% | 1006.8 hPa | 0 mm | - | - | - |
| 1787919303 | 26.11° C | 53% | 1006.2 hPa | 0 mm | - | - | - |
| 1787918403 | 29.44° C | 48% | 1006.8 hPa | 0 mm | - | - | - |
| 1787917503 | 27.22° C | 59% | 1006.3 hPa | 0 mm | - | - | - |
| 1787916603 | 25° C | 73% | 1006.6 hPa | 0 mm | - | - | - |
| 1787915704 | 23.89° C | 71% | 1006.2 hPa | 0 mm | - | - | - |
| 1787914803 | 25.56° C | 71% | 1006 hPa | 0 mm | - | - | - |
| 1787913903 | 24.44° C | 76% | 1006.3 hPa | 0 mm | - | - | - |
| 1787913004 | 23.33° C | 79% | 1006.5 hPa | 0 mm | - | - | - |
| 1787912103 | 22.22° C | 80% | 1006.6 hPa | 0 mm | - | - | - |
| 1787911203 | 22.78° C | 79% | 1006.7 hPa | 0 mm | - | - | - |
| 1787910303 | 22.22° C | 79% | 1006.2 hPa | 0 mm | - | - | - |
| 1787909404 | 22.78° C | 79% | 1006.5 hPa | 0 mm | - | - | - |
| 1787908503 | 22.22° C | 80% | 1006.3 hPa | 0 mm | - | - | - |
| 1787907603 | 22.22° C | 80% | 1006.6 hPa | 0 mm | - | - | - |
| 1787906704 | 21.67° C | 82% | 1006.4 hPa | 0 mm | - | - | - |
| 1787905804 | 22.22° C | 80% | 1006.3 hPa | 0 mm | - | - | - |
| 1787904903 | 22.22° C | 83% | 1006.1 hPa | 0 mm | - | - | - |
| 1787904004 | 22.22° C | 83% | 1005.9 hPa | 0 mm | - | - | - |
| 1787903103 | 22.22° C | 84% | 1005.6 hPa | 0 mm | - | - | - |
* Rain latest hour (hover to see other rain measurements)
** Current wind speed in m/s (hover to see current wind gust speed)